Historyczne dane pomiarowe

Dodano dane terminowe – wersja testowa.

Dane z okresu 1951-2019

Wersja bazy: 1.34 [2019-03-16, lista zmian], aktualizacja planowana na 2019-04-15

Dane meteo z obszaru Polski uzyskane na podstawie danych udostępnionych przez Instytut Meteorologii i Gospodarki Wodnej – Państwowy Instytut Badawczy.

 

Wybierz Datę:    

       

TemperaturaWilgotnośćWiatrCiśnienieOpadyŚniegCzas trwania zjawisk
 Stacja t tx tn tng RH VA  wxwx mslp ppp RRR   cm mm wxwxwxwxwxwxwx
1983-08-14 13.1 18.8 5.8 4.8 78.3- 4.0 2.7---- 0.0------------
1983-08-13 15.0 22.1 12.7 13.0 82.8- 7.0 5.3---- 5.2------------
1983-08-12 20.5 26.2 12.7 11.4 63.5- 2.0 3.7---- 3.8------------
1983-08-11 20.6 27.7 13.2 10.7 67.3- 0.3 1.0---- 0.0------------
1983-08-10 20.7 26.1 13.3 11.9 62.8- 1.0 1.3---- 0.0------------
1983-08-09 20.0 26.7 12.2 11.3 75.5- 2.3 1.0---- 0.0------------
1983-08-08 19.1 25.7 14.6 13.2 82.0- 6.7 3.0---- 2.1------------
1983-08-07 18.6 22.4 13.6 11.8 76.0- 7.3 3.3---- 7.4------------
1983-08-06 15.9 21.0 10.7 9.6 75.8- 4.3 1.0---- 3.2------------
1983-08-05 15.0 19.6 11.2 10.4 70.0- 3.3 2.0---- 0.0------------
1983-08-04 13.5 19.0 11.8 11.0 89.5- 8.0 2.7---- 7.6------------
1983-08-03 18.0 22.0 15.9 15.1 89.3- 6.7 2.0---- 1.2------------
1983-08-02 21.2 27.7 15.8 14.1 67.5- 6.3 2.3---- 2.3------------
1983-08-01 22.2 29.6 12.6 10.1 47.8- 0.3 4.0---- 0.0------------
1983-07-31 17.8 25.3 7.8 7.2 64.3- 0.3 2.0---- 0.0------------
1983-07-30 18.0 23.2 15.5 14.2 73.3- 5.3 6.0---- 0.0------------
1983-07-29 20.3 25.3 12.1 9.8 65.3- 5.7 4.0---- 0.4------------
1983-07-28 24.2 30.1 17.9 16.4 58.3- 2.3 2.7---- 0.0------------
1983-07-27 25.1 32.2 13.6 11.1 56.3- 1.7 0.7---- 0.0------------
1983-07-26 21.4 29.9 10.1 8.3 67.0- 1.3 2.3---- 0.0------------
1983-07-25 16.6 23.7 6.8 5.0 71.0- 3.7 2.0---- 0.0------------
1983-07-24 17.6 21.3 15.7 15.1 79.3- 7.3 1.0---- 0.2------------
1983-07-23 18.3 23.8 12.1 10.2 68.3- 5.3 5.3---- 0.4------------
1983-07-22 14.0 17.7 8.3 7.1 78.0- 7.0 4.7---- 0.0------------
1983-07-21 14.2 18.5 8.5 7.8 61.3- 3.3 5.3---- 0.0------------
1983-07-20 15.1 24.0 11.2 13.2 78.0- 6.7 2.0---- 5.8------------
1983-07-19 23.2 28.8 19.2 18.2 62.3- 5.0 3.7---- 0.3------------
1983-07-18 23.2 31.9 12.6 11.0 56.3- 0.7 1.7---- 0.0------------
1983-07-17 19.8 24.5 9.3 9.2 60.8- 2.3 2.3---- 0.0------------
1983-07-16 19.3 26.9 13.3 10.7 76.0- 5.7 2.3---- 5.8------------
1983-07-15 19.4 26.6 9.5 7.2 61.0- 1.3 2.0---- 0.0------------
1983-07-14 20.8 24.5 16.9 16.1 71.8- 4.0 4.0---- 0.0------------
1983-07-13 20.6 27.9 13.8 13.1 72.5- 3.7 2.3---- 6.7------------
1983-07-12 21.4 27.1 16.7 15.9 70.8- 6.7 3.0---- 7.4------------
1983-07-11 22.8 30.1 16.7 15.6 67.0- 4.7 3.7---- 2.1------------
1983-07-10 23.3 29.9 12.7 10.5 55.5- 1.7 1.7---- 0.0------------
1983-07-09 21.8 27.7 13.7 11.7 62.5- 0.7 2.3---- 0.0------------
1983-07-08 20.5 26.2 11.8 9.6 58.5- 0.0 2.3---- 0.0------------
1983-07-07 21.9 28.1 14.7 14.0 54.5- 0.0 2.3---- 0.0------------
1983-07-06 21.6 27.9 11.6 9.5 62.5- 0.0 1.7---- 0.0------------
1983-07-05 18.8 24.5 11.5 9.8 65.5- 1.0 1.3---- 0.0------------
1983-07-04 20.7 26.1 10.9 10.5 69.3- 1.7 1.0---- 0.0------------
1983-07-03 19.2 24.5 9.6 7.5 61.5- 1.3 0.7---- 0.0------------
1983-07-02 18.0 24.4 13.3 12.1 72.5- 3.0 4.0---- 0.0------------
1983-07-01 19.7 26.2 11.7 10.0 64.0- 3.3 1.3---- 0.0------------
1983-06-30 17.9 24.0 10.1 8.2 55.3- 2.7 2.3---- 0.0------------
1983-06-29 13.6 19.0 7.0 6.1 68.8- 2.7 2.3---- 0.0------------
1983-06-28 16.1 20.3 14.1 13.2 74.5- 6.3 4.3---- 0.0------------
1983-06-27 19.9 26.1 14.7 11.9 75.8- 6.3 3.0---- 25.1------------
1983-06-26 19.9 25.2 13.0 11.5 49.0- 1.3 2.3---- 0.0------------
1983-06-25 20.3 29.1 12.2 8.9 64.3- 4.3 3.7---- 0.9------------
1983-06-24 19.0 27.2 8.2 5.3 48.8- 0.0 1.3---- 0.0------------
1983-06-23 15.8 22.6 6.3 4.0 48.5- 0.0 1.3---- 0.0------------
1983-06-22 14.3 20.9 7.3 5.9 53.8- 0.0 3.7---- 0.0------------
1983-06-21 19.3 25.0 10.8 8.5 57.3- 0.0 4.0---- 0.0------------
1983-06-20 19.1 25.5 12.1 9.8 63.0- 3.7 3.7---- 0.0------------
1983-06-19 17.0 21.0 12.3 10.8 73.8- 8.0 7.3---- 0.0------------
1983-06-18 13.5 15.6 10.8 10.0 79.5- 7.7 4.3---- 0.0------------
1983-06-17 13.0 17.4 5.8 4.1 73.8- 5.0 3.0---- 0.0------------
1983-06-16 13.0 16.9 9.9 8.9 74.3- 6.3 4.7---- 0.4------------
328.0 ms

 

Źródłem pochodzenia danych jest Instytut Meteorologii i Gospodarki Wodnej – Państwowy Instytut Badawczy. Dane Instytutu Meteorologii i Gospodarki Wodnej – Państwowego Instytutu Badawczego zostały przetworzone.

Dane źródłowe można odnaleźć na stronie https://dane.imgw.pl